Airfield :
LOGIN :

Register | Disclaimer

   EN    FR    IT 

 










Legend :    VFR   Marginal VFR   IFR   Intensive IFR   Very Intensive IFR
Visi :
Ceiling :
>= 8 km
>= 3000ft
5 to 8 km
1000 to 3000 ft
1500m to 5 km
500 to 1000 ft
800 to 1500m
200 to 500 ft
< 800m
< 200 ft
Symbols :   Thunderstorms  Fog  Heavy snow  Heavy precipitations  Wind > 20 kt
SIGMETs :     Misc.  Thunderstorms  Icing  Turbulence  Mountain Waves  Volcanic Ashes






- Airport Elevation : 202 ft
- IATA code : LGW


EGKK - London Gatwick

CURRENT METAR :
  • 281250Z 17012KT 140V210 4500 -RA OVC005 07/06 Q1004 REDZ

EXPIRED METARs :
  • 281220Z 18013KT 5000 -DZRA OVC006 06/06 Q1005
  • 281150Z 18011KT 6000 -RA BKN006 OVC010 06/06 Q1006
  • 281120Z 17012KT 6000 -RADZ BKN006 OVC010 06/05 Q1007
  • 281050Z 17012KT 140V210 9000 -DZRA BKN009 06/05 Q1008
  • 281020Z 18011KT 150V210 9000 -RADZ BKN009 OVC021 06/05 Q1008
  • 280950Z 18010KT 140V210 7000 -RADZ BKN010 OVC014 06/04 Q1009

TAF TAF EGKK
Valid from the 28 at 12:00 until the 29 at 18:00 UTC


281107Z 2812/2918 17015G25KT 9999 BKN010
TEMPO 2812/2821 4000 RA BKN006
PROB40
TEMPO 2813/2819 BKN004
BECMG 2814/2817 23015G28KT
BECMG 2821/2824 BKN016
PROB30
TEMPO 2821/2905 6000 -RA
TEMPO 2900/2905 BKN012
BECMG 2903/2906 18020G32KT
TEMPO 2905/2909 5000 RA BKN012
PROB30
TEMPO 2905/2909 3000 +RA BKN008
BECMG 2907/2910 25015G28KT
PROB30
TEMPO 2912/2918 3000 +SHRAGS



MET'MAP, your aeronautical weather chart ! - Copyright ORBIFLY December 2007 - Disclaimer

ORBIFLY MET'MAP TEAM :

Programming & Development : Alexandra Zaïnal
Concept & original design : Baudouin d'Aumeries
Assistance for programming : Marc-Olivier Méhu
Technical & hardware support : Manuel Goepfert

Contact : metmap@orbifly.com




SOURCES & CREDITS :

   NOAA